Airfield :







YOU CAN JOIN US ON...

 
LOGIN :

Register | Disclaimer

   EN    FR    IT 

 









Legend :    VFR   Marginal VFR   IFR   Intensive IFR   Very Intensive IFR
Visi :
Ceiling :
>= 8 km
>= 3000ft
5 to 8 km
1000 to 3000 ft
1500m to 5 km
500 to 1000 ft
800 to 1500m
200 to 500 ft
< 800m
< 200 ft
Symbols :   Thunderstorms  Fog  Heavy snow  Heavy precipitations  Wind > 20 kt







- Airport Elevation : 107 ft


KBVY - Beverly Municipal

CURRENT METAR :
  • 171253Z 34008KT 10SM CLR M05/M13 A3010 RMK AO2 SLP190 T10501133

EXPIRED METARs :
  • 171153Z 32009KT 10SM CLR M06/M13 A3008 RMK AO2 SLP185 T10611133 11033 21067 53018
  • 171053Z AUTO 32009KT 10SM CLR M06/M13 A3006 RMK AO2 SLP177 T10611133

TAF N/A
KZBW FIR / North America



MET'MAP, your aeronautical weather chart ! - Copyright ORBIFLY December 2007 - Disclaimer

ORBIFLY MET'MAP TEAM :

Programming & Development : Alexandra Zaïnal
Concept & Development : Baudouin d'Aumeries
Co-Development & Prog : Marc-Olivier Méhu
Technical & hardware support : Manuel Goepfert

Contact : metmap@orbifly.com




SOURCES & CREDITS :

   NOAA